Last 30 Days

Bell Hill-West

Daily Data | America/Los_Angeles
as of 10/26/20 8:24 AM PDT
Date Daily Max Temp (°F) Time of Max Temp Daily Min Temp (°F) Time of Min Temp Daily Rain (In) Monthly Rain (In) Seasonal Rainfall (In) Wind Spd (mph) Daily Max Wind (mph) Time of Max Wind Max Wind Dir (°) Daily ETo (in) 7 Day ETo (in) Daily Solar Rad (Cal/cm2) Dew Pt (°F) Max RH (%) Min RH (%) Hrs 70-85F (hrs) Hrs > 95F (hrs) Powdery Mildew Stress (pts) GDDs (DL) GDDs (Mx/Mn) Seas GDDs (DL) Seas GDDs (Smpl) Hrs <= 32F (hrs) Hrs <= 28F (hrs) Chilling <=45F (hrs) Chill Hrs 32-45F (hrs) Utah Chilling (Units) Degree Hrs (hrs) Bat Volt Min Day (V)
10/25/20 69.1 1639 38.0 0717 0.00 0.00 0.12 1.1 17.8 1607 NNE | 25 0.102 0.76 377 25.2 97 8 0.00 0.00 0 6.3 3.6 3,648 3,611 0.0 0.0 9.4 9.4 4.0 13.7 12.2
10/24/20 72.9 1453 39.9 0723 0.00 0.00 0.12 2.2 14.8 1519 W | 280 0.116 0.77 372 40.1 89 23 4.55 0.00 0 7.7 6.4 3,642 3,607 0.0 0.0 8.2 8.2 4.0 36.4 12.1
10/23/20 76.4 1456 39.0 0711 0.00 0.00 0.12 1.7 12.5 1626 S | 185 0.116 0.77 384 34.8 75 20 5.31 0.00 10 8.7 7.7 3,634 3,601 0.0 0.0 7.3 7.3 -5.0 52.6 12.1
10/22/20 81.1 1555 43.3 0704 0.00 0.00 0.12 0.6 12.1 1257 ESE | 108 0.107 0.76 391 29.2 86 6 7.30 0.00 20 10.8 12.2 3,626 3,593 0.0 0.0 2.7 2.7 3.0 95.3 12.1
10/21/20 86.6 1609 43.7 0713 0.00 0.00 0.12 0.4 12.1 1438 N | 1 0.108 0.77 389 40.9 80 17 4.90 0.00 0 13.9 15.2 3,615 3,581 0.0 0.0 1.3 1.3 1.0 137.8 12.2
10/20/20 90.4 1458 44.0 0709 0.00 0.00 0.12 0.1 7.8 1514 NNE | 25 0.102 0.78 393 38.5 80 12 2.92 0.00 0 14.8 17.2 3,601 3,566 0.0 0.0 1.1 1.1 0.5 153.8 12.1
10/19/20 89.2 1541 44.1 0719 0.00 0.00 0.12 0.4 9.1 1547 WSW | 246 0.106 0.80 395 38.6 73 16 4.02 0.00 0 14.9 16.6 3,586 3,549 0.0 0.0 0.6 0.6 1.0 157.4 12.2
10/18/20 90.9 1536 46.4 0723 0.00 0.00 0.12 0.5 12.1 1235 NNE | 12 0.118 0.81 405 36.3 64 13 2.65 0.00 0 16.0 18.7 3,571 3,532 0.0 0.0 0.0 0.0 1.0 178.0 12.1
10/17/20 95.0 1548 45.2 0707 0.00 0.00 0.12 0.2 11.8 1542 NNW | 328 0.112 0.80 413 32.2 59 8 3.30 0.01 0 17.5 20.1 3,555 3,513 0.0 0.0 0.0 0.0 0.5 206.6 12.0
10/16/20 93.5 1544 45.8 0744 0.00 0.00 0.12 0.1 8.4 1517 NNE | 25 0.111 0.76 425 30.5 57 8 2.43 0.00 0 17.6 19.7 3,538 3,493 0.0 0.0 0.0 0.0 0.5 198.2 12.1
10/15/20 94.0 1612 46.7 0728 0.00 0.00 0.12 0.2 13.5 1623 E | 83 0.113 0.76 417 36.2 76 9 2.54 0.00 10 18.0 20.4 3,520 3,473 0.0 0.0 0.0 0.0 0.0 202.3 12.2
10/14/20 87.7 1641 48.6 0739 0.00 0.00 0.12 0.1 9.5 1349 NE | 41 0.114 0.75 418 44.9 87 18 5.11 0.00 20 15.8 18.1 3,502 3,453 0.0 0.0 0.0 0.0 0.0 152.1 12.1
10/13/20 89.0 1522 46.4 0722 0.00 0.00 0.12 0.4 12.8 1416 NW | 325 0.123 0.78 421 46.3 94 20 3.33 0.00 30 16.2 17.7 3,486 3,435 0.0 0.0 0.0 0.0 0.0 168.4 12.1
10/12/20 84.7 1640 42.2 0711 0.00 0.00 0.12 0.2 11.1 1649 WSW | 250 0.118 0.78 436 43.1 89 17 8.18 0.00 40 12.8 13.4 3,470 3,417 0.0 0.0 2.9 2.9 1.0 112.7 12.1
10/11/20 78.7 1633 41.9 0722 0.00 0.00 0.12 0.2 10.5 1415 N | 0 0.112 0.80 438 42.4 99 20 5.78 0.00 20 9.8 10.3 3,457 3,404 0.0 0.0 4.0 4.0 1.5 63.3 12.0
10/10/20 68.9 1324 47.0 0101 0.00 0.00 0.12 2.0 14.5 1235 S | 189 0.069 0.83 225 52.0 94 61 0.00 0.00 30 8.5 8.0 3,448 3,394 0.0 0.0 0.0 0.0 1.5 13.3 12.1
10/9/20 76.5 1448 40.6 0704 0.00 0.00 0.12 1.1 15.2 1533 SSW | 202 0.114 0.94 408 44.8 92 26 6.28 0.00 40 10.6 8.5 3,439 3,386 0.0 0.0 5.9 5.9 0.5 61.1 12.2
10/8/20 79.5 1320 46.5 0059 0.00 0.00 0.12 1.4 14.5 1537 SSW | 212 0.104 0.92 333 42.4 85 17 6.32 0.00 20 10.2 13.0 3,429 3,377 0.0 0.0 0.0 0.0 2.0 63.3 12.2
10/7/20 86.8 1439 40.4 0750 0.00 0.00 0.12 0.5 13.8 1724 SSW | 205 0.139 0.90 480 32.5 65 7 2.94 0.00 0 13.5 13.6 3,418 3,364 0.0 0.0 4.5 4.5 1.5 141.5 12.2
10/6/20 90.8 1443 43.6 0730 0.00 0.00 0.12 0.3 12.8 1522 S | 178 0.129 0.89 460 34.3 70 9 2.92 0.00 0 15.0 17.2 3,405 3,350 0.0 0.0 2.0 2.0 1.0 165.4 12.1
10/5/20 90.4 1555 44.6 0713 0.00 0.00 0.12 0.5 11.1 1600 NNW | 346 0.129 0.88 444 35.5 71 11 2.70 0.00 10 15.8 17.5 3,390 3,333 0.0 0.0 0.5 0.5 1.0 175.3 12.2
10/4/20 92.0 1616 45.6 0727 0.00 0.00 0.12 0.3 11.8 1350 SW | 233 0.142 0.86 497 32.0 65 7 2.62 0.00 20 17.5 18.8 3,374 3,316 0.0 0.0 0.0 0.0 0.5 199.2 12.2
10/3/20 96.4 1404 48.9 0702 0.00 0.00 0.12 2.0 22.2 1513 WSW | 248 0.188 0.88 477 32.8 59 8 1.88 1.77 30 21.4 22.6 3,356 3,297 0.0 0.0 0.0 0.0 0.0 258.8 12.1
10/2/20 93.4 1647 53.7 0725 0.00 0.00 0.12 0.1 9.1 1645 NNW | 338 0.085 0.84 294 40.1 60 12 3.54 0.00 40 19.4 23.5 3,335 3,274 0.0 0.0 0.0 0.0 0.0 185.2 12.2
10/1/20 92.5 1548 54.9 0713 0.00 0.00 0.12 0.0 4.4 2048 S | 188 0.087 0.91 304 41.7 57 14 3.43 0.00 50 20.0 23.7 3,316 3,251 0.0 0.0 0.0 0.0 -14.5 187.4 12.1
9/30/20 97.7 1650 50.2 0647 0.00 0.00 0.12 0.2 11.1 1744 WSW | 254 0.129 0.99 457 38.9 66 10 2.62 2.46 60 21.5 24.0 3,296 3,227 0.0 0.0 0.0 0.0 -14.5 250.8 12.1
9/29/20 94.1 1538 50.7 0607 0.00 0.00 0.12 0.3 12.5 1359 N | 9 0.119 1.04 393 37.7 60 11 2.45 0.00 70 19.0 22.4 3,274 3,203 0.0 0.0 0.0 0.0 0.0 203.7 12.1
9/28/20 96.1 1529 56.9 0032 0.00 0.00 0.12 0.3 13.2 0114 E | 82 0.112 1.10 389 28.2 45 8 5.50 1.87 80 28.3 26.5 3,255 3,181 0.0 0.0 0.0 0.0 0.0 335.5 12.0
9/27/20 93.5 1630 47.7 0654 0.00 0.00 0.12 1.0 15.8 0052 NNE | 29 0.162 1.16 499 39.3 94 8 1.65 0.00 90 21.4 20.6 3,227 3,154 0.0 0.0 0.0 0.0 -16.0 254.2 12.2
9/26/20 83.1 1446 51.8 0712 0.00 0.00 0.12 1.2 15.2 1306 WSW | 248 0.141 1.13 435 50.1 89 29 9.67 0.00 100 16.5 17.4 3,205 3,134 0.0 0.0 0.0 0.0 0.0 134.6 12.1
Max 97.7 - 56.9 - 0.00 0.00 - 2.2 22.2 - - 0.188 - 499 52.0 99 61 9.67 2.46 100 28.3 26.5 - - 0.0 0.0 9.4 9.4 4.0 335.5 12.2
Avg - - - - - 0.00 - 0.6 - - - - - - 38.1 - - 3.89 0.20 - 15.3 16.5 - - 0.0 0.0 1.7 1.7 -0.8 - -
Min 68.9 - 38.0 - 0.00 0.00 - 0.0 4.4 - - 0.069 - 225 25.2 45 6 0.00 0.00 0 6.3 3.6 - - 0.0 0.0 0.0 0.0 -16.0 13.3 12.0
Total - - - - - - - - - - - - - - - - - 116.82 6.10 - 459.6 494.5 - - 0.0 0.0 50.5 50.5 -24.0 - -